sensor_id;sensor_type;location;lat;lon;timestamp;pressure;altitude;pressure_sealevel;temperature;humidity
56392;BME280;42289;53.582;9.714;2022-12-07T00:01:05;101406.47;;;2.23;100.00
56392;BME280;42289;53.582;9.714;2022-12-07T00:03:32;101412.53;;;2.32;100.00
56392;BME280;42289;53.582;9.714;2022-12-07T00:05:59;101406.50;;;2.32;100.00
56392;BME280;42289;53.582;9.714;2022-12-07T00:08:26;101409.91;;;2.28;100.00
56392;BME280;42289;53.582;9.714;2022-12-07T00:10:53;101394.53;;;2.29;100.00
56392;BME280;42289;53.582;9.714;2022-12-07T00:13:20;101395.47;;;2.47;100.00
56392;BME280;42289;53.582;9.714;2022-12-07T00:15:46;101398.81;;;2.33;100.00
56392;BME280;42289;53.582;9.714;2022-12-07T00:18:12;101394.56;;;2.35;100.00
56392;BME280;42289;53.582;9.714;2022-12-07T00:20:39;101392.00;;;2.39;100.00
56392;BME280;42289;53.582;9.714;2022-12-07T00:23:05;101391.16;;;2.40;100.00
56392;BME280;42289;53.582;9.714;2022-12-07T00:25:33;101392.03;;;2.42;100.00
56392;BME280;42289;53.582;9.714;2022-12-07T00:28:00;101396.31;;;2.43;100.00
56392;BME280;42289;53.582;9.714;2022-12-07T00:30:26;101392.03;;;2.43;100.00
56392;BME280;42289;53.582;9.714;2022-12-07T00:32:53;101392.06;;;2.45;100.00
56392;BME280;42289;53.582;9.714;2022-12-07T00:35:19;101400.63;;;2.53;100.00
56392;BME280;42289;53.582;9.714;2022-12-07T00:37:45;101400.63;;;2.50;100.00
56392;BME280;42289;53.582;9.714;2022-12-07T00:40:12;101402.34;;;2.52;100.00
56392;BME280;42289;53.582;9.714;2022-12-07T00:42:40;101404.03;;;2.50;100.00
56392;BME280;42289;53.582;9.714;2022-12-07T00:45:07;101395.50;;;2.53;100.00
56392;BME280;42289;53.582;9.714;2022-12-07T00:47:34;101392.94;;;2.58;100.00
56392;BME280;42289;53.582;9.714;2022-12-07T00:50:00;101380.94;;;2.49;100.00
56392;BME280;42289;53.582;9.714;2022-12-07T00:52:27;101368.94;;;2.45;100.00
56392;BME280;42289;53.582;9.714;2022-12-07T00:54:53;101366.38;;;2.45;100.00
56392;BME280;42289;53.582;9.714;2022-12-07T00:57:19;101357.84;;;2.46;100.00
56392;BME280;42289;53.582;9.714;2022-12-07T00:59:47;101361.25;;;2.42;100.00
56392;BME280;42289;53.582;9.714;2022-12-07T01:02:14;101356.13;;;2.42;100.00
56392;BME280;42289;53.582;9.714;2022-12-07T01:04:40;101350.09;;;2.35;100.00
56392;BME280;42289;53.582;9.714;2022-12-07T01:07:07;101356.94;;;2.30;100.00
56392;BME280;42289;53.582;9.714;2022-12-07T01:09:33;101344.09;;;2.33;100.00
56392;BME280;42289;53.582;9.714;2022-12-07T01:12:00;101350.94;;;2.35;100.00
56392;BME280;42289;53.582;9.714;2022-12-07T01:14:28;101347.53;;;2.37;100.00
56392;BME280;42289;53.582;9.714;2022-12-07T01:16:55;101341.53;;;2.30;100.00
56392;BME280;42289;53.582;9.714;2022-12-07T01:19:22;101346.66;;;2.30;100.00
56392;BME280;42289;53.582;9.714;2022-12-07T01:21:48;101341.53;;;2.33;100.00
56392;BME280;42289;53.582;9.714;2022-12-07T01:24:14;101344.94;;;2.27;100.00
56392;BME280;42289;53.582;9.714;2022-12-07T01:26:41;101339.78;;;2.23;100.00
56392;BME280;42289;53.582;9.714;2022-12-07T01:29:07;101343.22;;;2.25;100.00
56392;BME280;42289;53.582;9.714;2022-12-07T01:31:34;101341.50;;;2.24;100.00
56392;BME280;42289;53.582;9.714;2022-12-07T01:34:01;101339.78;;;2.21;100.00
56392;BME280;42289;53.582;9.714;2022-12-07T01:36:29;101345.72;;;2.14;100.00
56392;BME280;42289;53.582;9.714;2022-12-07T01:38:58;101338.03;;;2.15;100.00
56392;BME280;42289;53.582;9.714;2022-12-07T01:41:27;101333.75;;;2.14;100.00
56392;BME280;42289;53.582;9.714;2022-12-07T01:44:25;101333.75;;;2.13;100.00
56392;BME280;42289;53.582;9.714;2022-12-07T01:46:53;101338.88;;;2.11;100.00
56392;BME280;42289;53.582;9.714;2022-12-07T01:49:30;101338.00;;;2.06;100.00
56392;BME280;42289;53.582;9.714;2022-12-07T01:52:03;101338.84;;;2.04;100.00
56392;BME280;42289;53.582;9.714;2022-12-07T01:54:34;101336.28;;;2.05;100.00
56392;BME280;42289;53.582;9.714;2022-12-07T01:57:01;101344.00;;;2.07;100.00
56392;BME280;42289;53.582;9.714;2022-12-07T01:59:28;101343.94;;;2.00;100.00
56392;BME280;42289;53.582;9.714;2022-12-07T02:01:55;101343.13;;;2.05;100.00
56392;BME280;42289;53.582;9.714;2022-12-07T02:04:22;101343.06;;;1.92;100.00
56392;BME280;42289;53.582;9.714;2022-12-07T02:06:50;101349.00;;;1.85;100.00
56392;BME280;42289;53.582;9.714;2022-12-07T02:09:18;101358.44;;;1.89;100.00
56392;BME280;42289;53.582;9.714;2022-12-07T02:11:44;101353.25;;;1.86;100.00
56392;BME280;42289;53.582;9.714;2022-12-07T02:14:10;101354.13;;;1.88;100.00
56392;BME280;42289;53.582;9.714;2022-12-07T02:16:43;101354.09;;;1.83;100.00
56392;BME280;42289;53.582;9.714;2022-12-07T02:22:30;101343.81;;;1.77;100.00
56392;BME280;42289;53.582;9.714;2022-12-07T02:25:08;101348.06;;;1.72;100.00
56392;BME280;42289;53.582;9.714;2022-12-07T02:27:44;101347.28;;;1.81;100.00
56392;BME280;42289;53.582;9.714;2022-12-07T02:30:14;101345.47;;;1.67;100.00
56392;BME280;42289;53.582;9.714;2022-12-07T02:32:45;101348.94;;;1.74;100.00
56392;BME280;42289;53.582;9.714;2022-12-07T02:35:19;101341.16;;;1.62;100.00
56392;BME280;42289;53.582;9.714;2022-12-07T02:37:57;101332.66;;;1.69;100.00
56392;BME280;42289;53.582;9.714;2022-12-07T02:40:29;101330.88;;;1.60;100.00
56392;BME280;42289;53.582;9.714;2022-12-07T02:43:02;101341.06;;;1.49;100.00
56392;BME280;42289;53.582;9.714;2022-12-07T02:45:34;101339.38;;;1.50;100.00
56392;BME280;42289;53.582;9.714;2022-12-07T02:48:03;101334.22;;;1.48;100.00
56392;BME280;42289;53.582;9.714;2022-12-07T02:50:31;101334.28;;;1.55;100.00
56392;BME280;42289;53.582;9.714;2022-12-07T02:52:57;101340.25;;;1.54;100.00
56392;BME280;42289;53.582;9.714;2022-12-07T02:55:28;101334.22;;;1.47;100.00
56392;BME280;42289;53.582;9.714;2022-12-07T02:58:07;101329.97;;;1.54;100.00
56392;BME280;42289;53.582;9.714;2022-12-07T03:00:45;101332.50;;;1.46;100.00
56392;BME280;42289;53.582;9.714;2022-12-07T03:03:17;101338.50;;;1.49;100.00
56392;BME280;42289;53.582;9.714;2022-12-07T03:06:09;101326.50;;;1.45;100.00
56392;BME280;42289;53.582;9.714;2022-12-07T03:08:44;101333.34;;;1.42;100.00
56392;BME280;42289;53.582;9.714;2022-12-07T03:11:16;101335.91;;;1.43;100.00
56392;BME280;42289;53.582;9.714;2022-12-07T03:13:49;101332.44;;;1.38;100.00
56392;BME280;42289;53.582;9.714;2022-12-07T03:16:24;101327.31;;;1.38;100.00
56392;BME280;42289;53.582;9.714;2022-12-07T03:18:53;101329.00;;;1.36;100.00
56392;BME280;42289;53.582;9.714;2022-12-07T03:21:23;101323.88;;;1.34;100.00
56392;BME280;42289;53.582;9.714;2022-12-07T03:23:55;101323.03;;;1.32;100.00
56392;BME280;42289;53.582;9.714;2022-12-07T03:26:28;101317.00;;;1.26;100.00
56392;BME280;42289;53.582;9.714;2022-12-07T03:29:01;101316.94;;;1.23;100.00
56392;BME280;42289;53.582;9.714;2022-12-07T03:31:32;101313.50;;;1.17;100.00
56392;BME280;42289;53.582;9.714;2022-12-07T03:34:03;101311.03;;;1.30;100.00
56392;BME280;42289;53.582;9.714;2022-12-07T03:36:37;101316.94;;;1.20;100.00
56392;BME280;42289;53.582;9.714;2022-12-07T03:39:12;101321.16;;;1.14;100.00
56392;BME280;42289;53.582;9.714;2022-12-07T03:41:41;101315.19;;;1.15;100.00
56392;BME280;42289;53.582;9.714;2022-12-07T03:44:07;101314.34;;;1.15;100.00
56392;BME280;42289;53.582;9.714;2022-12-07T03:46:42;101310.88;;;1.10;100.00
56392;BME280;42289;53.582;9.714;2022-12-07T03:49:16;101301.47;;;1.06;100.00
56392;BME280;42289;53.582;9.714;2022-12-07T03:51:48;101302.28;;;1.03;100.00
56392;BME280;42289;53.582;9.714;2022-12-07T03:54:19;101299.75;;;1.05;100.00
56392;BME280;42289;53.582;9.714;2022-12-07T03:56:49;101294.59;;;1.02;100.00
56392;BME280;42289;53.582;9.714;2022-12-07T03:59:17;101286.88;;;0.97;100.00
56392;BME280;42289;53.582;9.714;2022-12-07T04:01:51;101292.88;;;1.00;100.00
56392;BME280;42289;53.582;9.714;2022-12-07T04:04:18;101289.50;;;1.03;100.00
56392;BME280;42289;53.582;9.714;2022-12-07T04:06:44;101286.13;;;1.09;100.00
56392;BME280;42289;53.582;9.714;2022-12-07T04:09:11;101284.41;;;1.08;100.00
56392;BME280;42289;53.582;9.714;2022-12-07T04:11:39;101274.94;;;0.99;100.00
56392;BME280;42289;53.582;9.714;2022-12-07T04:14:06;101267.34;;;1.07;100.00
56392;BME280;42289;53.582;9.714;2022-12-07T04:16:46;101261.41;;;1.11;100.00
56392;BME280;42289;53.582;9.714;2022-12-07T04:19:13;101261.41;;;1.14;100.00
56392;BME280;42289;53.582;9.714;2022-12-07T04:21:41;101251.97;;;1.07;100.00
56392;BME280;42289;53.582;9.714;2022-12-07T04:24:08;101252.00;;;1.11;100.00
56392;BME280;42289;53.582;9.714;2022-12-07T04:26:34;101243.47;;;1.11;100.00
56392;BME280;42289;53.582;9.714;2022-12-07T04:29:01;101236.63;;;1.08;100.00
56392;BME280;42289;53.582;9.714;2022-12-07T04:31:27;101226.41;;;1.11;100.00
56392;BME280;42289;53.582;9.714;2022-12-07T04:33:55;101225.56;;;1.14;100.00
56392;BME280;42289;53.582;9.714;2022-12-07T04:36:22;101221.25;;;1.07;100.00
56392;BME280;42289;53.582;9.714;2022-12-07T04:38:48;101217.03;;;1.15;100.00
56392;BME280;42289;53.582;9.714;2022-12-07T04:41:15;101217.03;;;1.15;100.00
56392;BME280;42289;53.582;9.714;2022-12-07T04:43:41;101200.78;;;1.10;100.00
56392;BME280;42289;53.582;9.714;2022-12-07T04:46:07;101189.66;;;1.08;100.00
56392;BME280;42289;53.582;9.714;2022-12-07T04:48:34;101186.31;;;1.16;100.00
56392;BME280;42289;53.582;9.714;2022-12-07T04:51:04;101176.03;;;1.12;100.00
56392;BME280;42289;53.582;9.714;2022-12-07T04:53:30;101168.34;;;1.07;100.00
56392;BME280;42289;53.582;9.714;2022-12-07T04:55:57;101169.16;;;1.00;100.00
56392;BME280;42289;53.582;9.714;2022-12-07T04:58:23;101155.50;;;1.03;100.00
56392;BME280;42289;53.582;9.714;2022-12-07T05:00:49;101156.31;;;0.92;100.00
56392;BME280;42289;53.582;9.714;2022-12-07T05:03:19;101157.97;;;0.89;100.00
56392;BME280;42289;53.582;9.714;2022-12-07T05:05:45;101161.41;;;0.91;100.00
56392;BME280;42289;53.582;9.714;2022-12-07T05:08:13;101165.69;;;0.93;100.00
56392;BME280;42289;53.582;9.714;2022-12-07T05:10:40;101168.22;;;0.89;100.00
56392;BME280;42289;53.582;9.714;2022-12-07T05:13:06;101161.44;;;0.97;100.00
56392;BME280;42289;53.582;9.714;2022-12-07T05:15:33;101160.59;;;0.99;100.00
56392;BME280;42289;53.582;9.714;2022-12-07T05:17:59;101145.19;;;0.92;100.00
56392;BME280;42289;53.582;9.714;2022-12-07T05:20:26;101149.47;;;0.90;100.00
56392;BME280;42289;53.582;9.714;2022-12-07T05:22:52;101152.03;;;0.91;100.00
56392;BME280;42289;53.582;9.714;2022-12-07T05:25:20;101157.16;;;0.93;100.00
56392;BME280;42289;53.582;9.714;2022-12-07T05:27:46;101155.47;;;0.93;100.00
56392;BME280;42289;53.582;9.714;2022-12-07T05:30:13;101166.50;;;0.88;100.00
56392;BME280;42289;53.582;9.714;2022-12-07T05:32:39;101168.22;;;0.89;100.00
56392;BME280;42289;53.582;9.714;2022-12-07T05:35:07;101163.91;;;0.84;100.00
56392;BME280;42289;53.582;9.714;2022-12-07T05:37:33;101163.09;;;0.89;100.00
56392;BME280;42289;53.582;9.714;2022-12-07T05:39:59;101170.00;;;0.96;100.00
56392;BME280;42289;53.582;9.714;2022-12-07T05:42:27;101172.50;;;0.94;100.00
56392;BME280;42289;53.582;9.714;2022-12-07T05:44:54;101175.97;;;1.03;100.00
56392;BME280;42289;53.582;9.714;2022-12-07T05:47:20;101166.56;;;0.98;100.00
56392;BME280;42289;53.582;9.714;2022-12-07T05:49:47;101170.91;;;1.06;100.00
56392;BME280;42289;53.582;9.714;2022-12-07T05:52:13;101173.44;;;1.04;100.00
56392;BME280;42289;53.582;9.714;2022-12-07T05:54:40;101170.06;;;1.07;100.00
56392;BME280;42289;53.582;9.714;2022-12-07T05:57:06;101176.03;;;1.09;100.00
56392;BME280;42289;53.582;9.714;2022-12-07T05:59:34;101170.00;;;1.00;100.00
56392;BME280;42289;53.582;9.714;2022-12-07T06:02:01;101166.59;;;1.02;100.00
56392;BME280;42289;53.582;9.714;2022-12-07T06:04:29;101170.91;;;1.09;100.00
56392;BME280;42289;53.582;9.714;2022-12-07T06:06:56;101176.84;;;1.00;100.00
56392;BME280;42289;53.582;9.714;2022-12-07T06:09:24;101173.41;;;0.96;100.00
56392;BME280;42289;53.582;9.714;2022-12-07T06:11:51;101185.34;;;0.99;100.00
56392;BME280;42289;53.582;9.714;2022-12-07T06:14:37;101187.09;;;1.00;100.00
56392;BME280;42289;53.582;9.714;2022-12-07T06:17:04;101208.41;;;1.02;100.00
56392;BME280;42289;53.582;9.714;2022-12-07T06:19:30;101206.69;;;0.99;100.00
56392;BME280;42289;53.582;9.714;2022-12-07T06:21:57;101211.81;;;0.99;100.00
56392;BME280;42289;53.582;9.714;2022-12-07T06:24:24;101216.00;;;0.93;100.00
56392;BME280;42289;53.582;9.714;2022-12-07T06:26:51;101217.75;;;0.94;100.00
56392;BME280;42289;53.582;9.714;2022-12-07T06:29:18;101216.94;;;1.03;100.00
56392;BME280;42289;53.582;9.714;2022-12-07T06:31:45;101228.88;;;1.00;100.00
56392;BME280;42289;53.582;9.714;2022-12-07T06:34:14;101231.44;;;0.99;100.00
56392;BME280;42289;53.582;9.714;2022-12-07T06:36:41;101234.81;;;0.96;100.00
56392;BME280;42289;53.582;9.714;2022-12-07T06:39:08;101239.19;;;1.07;100.00
56392;BME280;42289;53.582;9.714;2022-12-07T06:41:35;101242.56;;;1.04;100.00
56392;BME280;42289;53.582;9.714;2022-12-07T06:44:02;101246.00;;;1.08;100.00
56392;BME280;42289;53.582;9.714;2022-12-07T06:46:28;101253.69;;;1.09;100.00
56392;BME280;42289;53.582;9.714;2022-12-07T06:48:56;101261.44;;;1.17;100.00
56392;BME280;42289;53.582;9.714;2022-12-07T06:51:23;101251.16;;;1.14;100.00
56392;BME280;42289;53.582;9.714;2022-12-07T06:53:49;101253.75;;;1.17;100.00
56392;BME280;42289;53.582;9.714;2022-12-07T06:56:16;101252.91;;;1.15;100.00
56392;BME280;42289;53.582;9.714;2022-12-07T06:58:42;101248.69;;;1.23;100.00
56392;BME280;42289;53.582;9.714;2022-12-07T07:01:09;101252.09;;;1.22;100.00
56392;BME280;42289;53.582;9.714;2022-12-07T07:03:36;101252.91;;;1.20;100.00
56392;BME280;42289;53.582;9.714;2022-12-07T07:06:05;101250.34;;;1.21;100.00
56392;BME280;42289;53.582;9.714;2022-12-07T07:08:32;101247.81;;;1.23;100.00
56392;BME280;42289;53.582;9.714;2022-12-07T07:10:59;101258.94;;;1.28;100.00
56392;BME280;42289;53.582;9.714;2022-12-07T07:13:25;101239.31;;;1.28;100.00
56392;BME280;42289;53.582;9.714;2022-12-07T07:15:52;101254.72;;;1.31;100.00
56392;BME280;42289;53.582;9.714;2022-12-07T07:18:19;101243.59;;;1.31;100.00
56392;BME280;42289;53.582;9.714;2022-12-07T07:20:45;101240.16;;;1.27;100.00
56392;BME280;42289;53.582;9.714;2022-12-07T07:23:13;101241.91;;;1.30;100.00
56392;BME280;42289;53.582;9.714;2022-12-07T07:25:39;101245.22;;;1.21;100.00
56392;BME280;42289;53.582;9.714;2022-12-07T07:28:06;101241.91;;;1.36;100.00
56392;BME280;42289;53.582;9.714;2022-12-07T07:30:32;101244.41;;;1.25;100.00
56392;BME280;42289;53.582;9.714;2022-12-07T07:32:59;101244.41;;;1.22;100.00
56392;BME280;42289;53.582;9.714;2022-12-07T07:35:26;101251.25;;;1.26;100.00
56392;BME280;42289;53.582;9.714;2022-12-07T07:37:53;101243.56;;;1.25;100.00
56392;BME280;42289;53.582;9.714;2022-12-07T07:40:21;101251.25;;;1.29;100.00
56392;BME280;42289;53.582;9.714;2022-12-07T07:42:48;101252.13;;;1.30;100.00
56392;BME280;42289;53.582;9.714;2022-12-07T07:45:15;101244.47;;;1.31;100.00
56392;BME280;42289;53.582;9.714;2022-12-07T07:47:42;101251.28;;;1.31;100.00
56392;BME280;42289;53.582;9.714;2022-12-07T07:50:09;101248.69;;;1.25;100.00
56392;BME280;42289;53.582;9.714;2022-12-07T07:52:35;101249.59;;;1.34;100.00
56392;BME280;42289;53.582;9.714;2022-12-07T07:55:03;101262.41;;;1.33;100.00
56392;BME280;42289;53.582;9.714;2022-12-07T07:57:31;101264.13;;;1.32;100.00
56392;BME280;42289;53.582;9.714;2022-12-07T07:59:57;101260.69;;;1.32;100.00
56392;BME280;42289;53.582;9.714;2022-12-07T08:02:24;101270.09;;;1.33;100.00
56392;BME280;42289;53.582;9.714;2022-12-07T08:04:50;101264.13;;;1.37;100.00
56392;BME280;42289;53.582;9.714;2022-12-07T08:07:16;101266.75;;;1.42;100.00
56392;BME280;42289;53.582;9.714;2022-12-07T08:09:43;101258.22;;;1.46;100.00
56392;BME280;42289;53.582;9.714;2022-12-07T08:12:09;101263.38;;;1.55;100.00
56392;BME280;42289;53.582;9.714;2022-12-07T08:14:37;101259.97;;;1.55;100.00
56392;BME280;42289;53.582;9.714;2022-12-07T08:17:03;101270.28;;;1.67;100.00
56392;BME280;42289;53.582;9.714;2022-12-07T08:19:30;101269.41;;;1.62;100.00
56392;BME280;42289;53.582;9.714;2022-12-07T08:21:57;101266.03;;;1.69;100.00
56392;BME280;42289;53.582;9.714;2022-12-07T08:24:23;101270.28;;;1.68;100.00
56392;BME280;42289;53.582;9.714;2022-12-07T08:26:50;101270.34;;;1.75;100.00
56392;BME280;42289;53.582;9.714;2022-12-07T08:29:17;101272.06;;;1.76;100.00
56392;BME280;42289;53.582;9.714;2022-12-07T08:31:45;101274.63;;;1.77;100.00
56392;BME280;42289;53.582;9.714;2022-12-07T08:34:13;101268.66;;;1.78;100.00
56392;BME280;42289;53.582;9.714;2022-12-07T08:36:39;101259.34;;;1.97;100.00
56392;BME280;42289;53.582;9.714;2022-12-07T08:39:06;101265.31;;;1.92;100.00
56392;BME280;42289;53.582;9.714;2022-12-07T08:41:32;101261.03;;;1.97;100.00
56392;BME280;42289;53.582;9.714;2022-12-07T08:43:59;101269.56;;;1.94;100.00
56392;BME280;42289;53.582;9.714;2022-12-07T08:46:28;101264.44;;;1.94;100.00
56392;BME280;42289;53.582;9.714;2022-12-07T08:49:03;101262.75;;;1.98;100.00
56392;BME280;42289;53.582;9.714;2022-12-07T08:51:31;101266.22;;;2.11;100.00
56392;BME280;42289;53.582;9.714;2022-12-07T08:53:58;101258.56;;;2.20;100.00
56392;BME280;42289;53.582;9.714;2022-12-07T08:56:27;101256.88;;;2.28;100.00
56392;BME280;42289;53.582;9.714;2022-12-07T08:58:53;101247.47;;;2.29;100.00
56392;BME280;42289;53.582;9.714;2022-12-07T09:01:20;101245.75;;;2.29;100.00
56392;BME280;42289;53.582;9.714;2022-12-07T09:03:46;101231.22;;;2.34;100.00
56392;BME280;42289;53.582;9.714;2022-12-07T09:06:14;101214.13;;;2.27;100.00
56392;BME280;42289;53.582;9.714;2022-12-07T09:08:42;101209.00;;;2.38;100.00
56392;BME280;42289;53.582;9.714;2022-12-07T09:11:09;101192.78;;;2.48;100.00
56392;BME280;42289;53.582;9.714;2022-12-07T09:13:36;101189.34;;;2.57;100.00
56392;BME280;42289;53.582;9.714;2022-12-07T09:16:03;101170.53;;;2.57;100.00
56392;BME280;42289;53.582;9.714;2022-12-07T09:18:30;101150.00;;;2.50;100.00
56392;BME280;42289;53.582;9.714;2022-12-07T09:20:56;101150.84;;;2.49;100.00
56392;BME280;42289;53.582;9.714;2022-12-07T09:23:24;101149.16;;;2.51;100.00
56392;BME280;42289;53.582;9.714;2022-12-07T09:25:51;101138.03;;;2.56;100.00
56392;BME280;42289;53.582;9.714;2022-12-07T09:28:17;101123.50;;;2.50;100.00
56392;BME280;42289;53.582;9.714;2022-12-07T09:30:45;101126.03;;;2.75;100.00
56392;BME280;42289;53.582;9.714;2022-12-07T09:33:12;101114.06;;;2.63;100.00
56392;BME280;42289;53.582;9.714;2022-12-07T09:35:44;101108.09;;;2.59;100.00
56392;BME280;42289;53.582;9.714;2022-12-07T09:38:10;101112.31;;;2.73;100.00
56392;BME280;42289;53.582;9.714;2022-12-07T09:40:38;101102.91;;;2.68;100.00
56392;BME280;42289;53.582;9.714;2022-12-07T09:43:10;101109.69;;;3.08;100.00
56392;BME280;42289;53.582;9.714;2022-12-07T09:45:38;101075.56;;;2.77;100.00
56392;BME280;42289;53.582;9.714;2022-12-07T09:48:05;101049.03;;;2.72;100.00
56392;BME280;42289;53.582;9.714;2022-12-07T09:50:35;101041.34;;;2.72;100.00
56392;BME280;42289;53.582;9.714;2022-12-07T09:53:08;101026.78;;;2.71;100.00
56392;BME280;42289;53.582;9.714;2022-12-07T09:55:36;101043.00;;;2.79;100.00
56392;BME280;42289;53.582;9.714;2022-12-07T09:58:04;101038.78;;;2.72;100.00
56392;BME280;42289;53.582;9.714;2022-12-07T10:00:30;101036.19;;;2.72;100.00
56392;BME280;42289;53.582;9.714;2022-12-07T10:02:58;101030.16;;;2.82;100.00
56392;BME280;42289;53.582;9.714;2022-12-07T10:05:27;101032.75;;;2.83;100.00
56392;BME280;42289;53.582;9.714;2022-12-07T10:07:55;101028.47;;;2.82;100.00
56392;BME280;42289;53.582;9.714;2022-12-07T10:10:24;101018.19;;;2.82;100.00
56392;BME280;42289;53.582;9.714;2022-12-07T10:13:00;101018.22;;;2.68;100.00
56392;BME280;42289;53.582;9.714;2022-12-07T10:15:46;100993.31;;;2.97;100.00
56392;BME280;42289;53.582;9.714;2022-12-07T10:18:25;100959.97;;;2.89;100.00
56392;BME280;42289;53.582;9.714;2022-12-07T10:21:10;100942.00;;;2.89;100.00
56392;BME280;42289;53.582;9.714;2022-12-07T10:23:39;100936.88;;;2.86;100.00
56392;BME280;42289;53.582;9.714;2022-12-07T10:26:26;100919.78;;;2.85;100.00
56392;BME280;42289;53.582;9.714;2022-12-07T10:28:54;100917.22;;;2.79;100.00
56392;BME280;42289;53.582;9.714;2022-12-07T10:31:22;100910.31;;;2.92;100.00
56392;BME280;42289;53.582;9.714;2022-12-07T10:33:51;100894.91;;;2.93;100.00
56392;BME280;42289;53.582;9.714;2022-12-07T10:36:24;100887.19;;;2.90;100.00
56392;BME280;42289;53.582;9.714;2022-12-07T10:38:52;100889.66;;;3.10;100.00
56392;BME280;42289;53.582;9.714;2022-12-07T10:41:19;100871.69;;;3.07;100.00
56392;BME280;42289;53.582;9.714;2022-12-07T10:43:47;100854.44;;;3.26;100.00
56392;BME280;42289;53.582;9.714;2022-12-07T10:49:21;100814.28;;;3.14;100.00
56392;BME280;42289;53.582;9.714;2022-12-07T10:51:58;100796.28;;;3.19;100.00
56392;BME280;42289;53.582;9.714;2022-12-07T10:54:36;100772.97;;;3.39;100.00
56392;BME280;42289;53.582;9.714;2022-12-07T10:57:20;100760.22;;;3.30;100.00
56392;BME280;42289;53.582;9.714;2022-12-07T11:00:00;100760.19;;;3.33;100.00
56392;BME280;42289;53.582;9.714;2022-12-07T11:02:41;100746.25;;;3.56;100.00
56392;BME280;42289;53.582;9.714;2022-12-07T11:05:20;100740.47;;;3.35;100.00
56392;BME280;42289;53.582;9.714;2022-12-07T11:07:59;100744.84;;;3.27;100.00
56392;BME280;42289;53.582;9.714;2022-12-07T11:10:31;100757.69;;;3.27;100.00
56392;BME280;42289;53.582;9.714;2022-12-07T11:13:12;100750.88;;;3.21;100.00
56392;BME280;42289;53.582;9.714;2022-12-07T11:15:52;100758.38;;;3.43;100.00
56392;BME280;42289;53.582;9.714;2022-12-07T11:18:25;100764.50;;;3.31;100.00
56392;BME280;42289;53.582;9.714;2022-12-07T11:21:00;100755.72;;;3.50;100.00
56392;BME280;42289;53.582;9.714;2022-12-07T11:23:56;100734.31;;;3.51;100.00
56392;BME280;42289;53.582;9.714;2022-12-07T11:26:45;100720.72;;;3.42;100.00
56392;BME280;42289;53.582;9.714;2022-12-07T11:29:29;100727.63;;;3.32;100.00
56392;BME280;42289;53.582;9.714;2022-12-07T11:32:04;100722.44;;;3.40;100.00
56392;BME280;42289;53.582;9.714;2022-12-07T11:34:43;100722.50;;;3.35;100.00
56392;BME280;42289;53.582;9.714;2022-12-07T11:37:15;100718.97;;;3.44;100.00
56392;BME280;42289;53.582;9.714;2022-12-07T11:39:47;100707.91;;;3.35;100.00
56392;BME280;42289;53.582;9.714;2022-12-07T11:42:21;100702.72;;;3.39;100.00
56392;BME280;42289;53.582;9.714;2022-12-07T11:44:52;100708.63;;;3.50;100.00
56392;BME280;42289;53.582;9.714;2022-12-07T11:47:25;100704.41;;;3.41;100.00
56392;BME280;42289;53.582;9.714;2022-12-07T11:49:54;100700.22;;;3.35;100.00
56392;BME280;42289;53.582;9.714;2022-12-07T11:52:27;100709.78;;;3.23;100.00
56392;BME280;42289;53.582;9.714;2022-12-07T11:54:57;100724.28;;;3.27;100.00
56392;BME280;42289;53.582;9.714;2022-12-07T11:57:33;100722.59;;;3.26;100.00
56392;BME280;42289;53.582;9.714;2022-12-07T12:00:06;100732.88;;;3.24;100.00
56392;BME280;42289;53.582;9.714;2022-12-07T12:02:46;100742.25;;;3.28;100.00
56392;BME280;42289;53.582;9.714;2022-12-07T12:05:17;100749.00;;;3.40;100.00
56392;BME280;42289;53.582;9.714;2022-12-07T12:07:49;100745.50;;;3.43;100.00
56392;BME280;42289;53.582;9.714;2022-12-07T12:10:24;100754.09;;;3.43;100.00
56392;BME280;42289;53.582;9.714;2022-12-07T12:13:43;100755.00;;;3.39;100.00
56392;BME280;42289;53.582;9.714;2022-12-07T12:16:30;100760.16;;;3.34;100.00
56392;BME280;42289;53.582;9.714;2022-12-07T12:19:22;100761.84;;;3.39;100.00
56392;BME280;42289;53.582;9.714;2022-12-07T12:21:55;100761.03;;;3.32;100.00
56392;BME280;42289;53.582;9.714;2022-12-07T12:24:25;100772.97;;;3.39;100.00
56392;BME280;42289;53.582;9.714;2022-12-07T12:26:56;100774.72;;;3.35;100.00
56392;BME280;42289;53.582;9.714;2022-12-07T12:29:28;100772.91;;;3.44;100.00
56392;BME280;42289;53.582;9.714;2022-12-07T12:32:07;100777.13;;;3.54;100.00
56392;BME280;42289;53.582;9.714;2022-12-07T12:34:41;100777.03;;;3.62;100.00
56392;BME280;42289;53.582;9.714;2022-12-07T12:37:45;100766.66;;;3.73;100.00
56392;BME280;42289;53.582;9.714;2022-12-07T12:40:38;100753.63;;;3.86;100.00
56392;BME280;42289;53.582;9.714;2022-12-07T12:43:45;100739.06;;;3.84;100.00
56392;BME280;42289;53.582;9.714;2022-12-07T12:46:44;100720.25;;;3.83;100.00
56392;BME280;42289;53.582;9.714;2022-12-07T12:49:31;100719.44;;;3.78;100.00
56392;BME280;42289;53.582;9.714;2022-12-07T12:52:01;100706.13;;;4.12;100.00
56392;BME280;42289;53.582;9.714;2022-12-07T12:54:59;100688.19;;;4.09;100.00
56392;BME280;42289;53.582;9.714;2022-12-07T12:57:28;100685.09;;;3.82;100.00
56392;BME280;42289;53.582;9.714;2022-12-07T12:59:57;100673.28;;;3.69;100.00
56392;BME280;42289;53.582;9.714;2022-12-07T13:02:27;100676.78;;;3.63;100.00
56392;BME280;42289;53.582;9.714;2022-12-07T13:04:55;100688.97;;;3.46;100.00
56392;BME280;42289;53.582;9.714;2022-12-07T13:07:56;100686.41;;;3.43;100.00
56392;BME280;42289;53.582;9.714;2022-12-07T13:10:32;100689.88;;;3.39;100.00
56392;BME280;42289;53.582;9.714;2022-12-07T13:13:03;100695.16;;;3.26;100.00